createdAt,value
2024-02-06T00:00:11.897Z,5.69
2024-02-06T00:03:08.773Z,5.69
2024-02-06T00:06:06.293Z,5.93
2024-02-06T00:09:03.241Z,5.67
2024-02-06T00:12:00.151Z,5.44
2024-02-06T00:14:57.021Z,5.58
2024-02-06T00:17:53.880Z,6.01
2024-02-06T00:20:50.761Z,5.75
2024-02-06T00:23:47.629Z,5.65
2024-02-06T00:26:44.552Z,5.68
2024-02-06T00:29:41.413Z,5.63
2024-02-06T00:32:38.351Z,5.72
2024-02-06T00:35:35.468Z,5.92
2024-02-06T00:38:32.373Z,5.97
2024-02-06T00:41:29.281Z,6.14
2024-02-06T00:44:26.221Z,6.06
2024-02-06T00:47:23.374Z,5.78
2024-02-06T00:50:20.900Z,5.82
2024-02-06T00:53:18.179Z,5.81
2024-02-06T00:56:15.366Z,5.84
2024-02-06T00:59:12.212Z,5.98
2024-02-06T01:02:09.189Z,5.76
2024-02-06T01:05:06.605Z,5.66
2024-02-06T01:08:03.881Z,5.67
2024-02-06T01:11:00.813Z,5.79
2024-02-06T01:13:57.666Z,5.88
2024-02-06T01:16:54.528Z,5.82
2024-02-06T01:19:51.526Z,5.80
2024-02-06T01:22:48.460Z,5.80
2024-02-06T01:25:45.380Z,5.83
2024-02-06T01:28:42.368Z,5.85
2024-02-06T01:31:39.371Z,5.66
2024-02-06T01:34:36.392Z,5.97
2024-02-06T01:37:33.481Z,5.94
2024-02-06T01:40:30.465Z,5.68
2024-02-06T01:43:27.420Z,5.67
2024-02-06T01:46:24.704Z,5.80
2024-02-06T01:49:22.513Z,5.80
2024-02-06T01:52:20.669Z,5.86
2024-02-06T01:55:17.944Z,5.94
2024-02-06T01:58:15.295Z,5.82
2024-02-06T02:01:14.303Z,5.70
2024-02-06T02:04:12.301Z,5.74
2024-02-06T02:07:10.765Z,5.79
2024-02-06T02:10:08.603Z,5.72
2024-02-06T02:13:05.748Z,5.64
2024-02-06T02:16:04.641Z,5.81
2024-02-06T02:19:01.861Z,5.70
2024-02-06T02:21:58.851Z,5.85
2024-02-06T02:24:55.854Z,5.89
2024-02-06T02:27:53.062Z,5.91
2024-02-06T02:30:50.217Z,5.80
2024-02-06T02:33:47.159Z,5.80
2024-02-06T02:36:44.102Z,5.94
2024-02-06T02:39:41.149Z,5.93
2024-02-06T02:42:38.058Z,5.90
2024-02-06T02:45:34.908Z,5.75
2024-02-06T02:48:31.948Z,5.71
2024-02-06T02:51:29.047Z,5.75
2024-02-06T02:54:28.606Z,5.81
2024-02-06T02:57:25.516Z,5.76
2024-02-06T03:00:23.718Z,5.85
2024-02-06T03:03:20.675Z,5.97
2024-02-06T03:06:21.164Z,5.91
2024-02-06T03:09:18.225Z,5.83
2024-02-06T03:12:15.103Z,5.82
2024-02-06T03:15:12.017Z,5.81
2024-02-06T03:18:09.028Z,5.74
2024-02-06T03:21:06.420Z,5.67
2024-02-06T03:24:03.341Z,5.81
2024-02-06T03:27:00.808Z,5.75
2024-02-06T03:29:59.026Z,5.52
2024-02-06T03:32:56.033Z,5.65
2024-02-06T03:35:53.023Z,5.74
2024-02-06T03:38:49.919Z,5.60
2024-02-06T03:41:46.775Z,5.67
2024-02-06T03:44:43.640Z,5.62
2024-02-06T03:47:40.530Z,5.55
2024-02-06T03:50:37.366Z,5.61
2024-02-06T03:53:34.500Z,5.53
2024-02-06T03:56:31.393Z,5.42
2024-02-06T03:59:28.272Z,5.56
2024-02-06T04:02:25.201Z,5.48
2024-02-06T04:05:22.053Z,5.40
2024-02-06T04:08:18.971Z,5.62
2024-02-06T04:11:15.980Z,5.68
2024-02-06T04:14:12.938Z,5.66
2024-02-06T04:17:09.859Z,5.58
2024-02-06T04:20:07.945Z,5.55
2024-02-06T04:23:05.000Z,5.58
2024-02-06T04:26:01.861Z,5.45
2024-02-06T04:28:58.864Z,5.26
2024-02-06T04:31:55.972Z,5.44
2024-02-06T04:34:53.048Z,5.15
2024-02-06T04:37:50.017Z,5.46
2024-02-06T04:40:46.952Z,5.50
2024-02-06T04:43:43.894Z,5.22
2024-02-06T04:46:40.856Z,5.39
2024-02-06T04:49:37.915Z,5.47
2024-02-06T04:52:38.510Z,5.36
2024-02-06T04:55:38.022Z,5.39
2024-02-06T04:58:35.115Z,5.32
2024-02-06T05:01:35.257Z,5.46
2024-02-06T05:04:32.406Z,5.30
2024-02-06T05:07:29.704Z,5.16
2024-02-06T05:10:26.806Z,4.99
2024-02-06T05:13:23.758Z,5.27
2024-02-06T05:16:21.090Z,5.25
2024-02-06T05:19:19.303Z,5.23
2024-02-06T05:22:16.301Z,5.05
2024-02-06T05:25:13.285Z,4.99
2024-02-06T05:28:10.398Z,5.11
2024-02-06T05:31:07.293Z,5.17
2024-02-06T05:34:04.342Z,5.11
2024-02-06T05:37:01.300Z,5.02
2024-02-06T05:39:59.076Z,5.17
2024-02-06T05:42:56.017Z,5.12
2024-02-06T05:45:52.921Z,5.08
2024-02-06T05:48:49.846Z,5.00
2024-02-06T05:51:46.704Z,4.95
2024-02-06T05:54:43.678Z,5.04
2024-02-06T05:57:41.455Z,5.10
2024-02-06T06:00:38.350Z,5.06
2024-02-06T06:03:35.449Z,5.19
2024-02-06T06:06:32.412Z,5.20
2024-02-06T06:09:29.465Z,5.15
2024-02-06T06:12:26.436Z,5.26
2024-02-06T06:15:23.288Z,5.25
2024-02-06T06:18:20.279Z,5.01
2024-02-06T06:21:17.249Z,5.17
2024-02-06T06:24:14.331Z,5.10
2024-02-06T06:27:11.315Z,5.02
2024-02-06T06:30:09.623Z,5.01
2024-02-06T06:33:06.672Z,4.94
2024-02-06T06:36:04.068Z,5.16
2024-02-06T06:39:00.932Z,5.20
2024-02-06T06:41:58.052Z,5.01
2024-02-06T06:44:54.918Z,5.02
2024-02-06T06:47:51.852Z,4.93
2024-02-06T06:50:48.754Z,5.01
2024-02-06T06:53:45.616Z,5.02
2024-02-06T06:56:42.475Z,4.95
2024-02-06T06:59:39.525Z,5.05
2024-02-06T07:02:36.381Z,5.20
2024-02-06T07:05:33.853Z,5.11
2024-02-06T07:08:30.819Z,5.40
2024-02-06T07:11:27.685Z,5.17
2024-02-06T07:14:24.557Z,5.20
2024-02-06T07:17:21.425Z,5.26
2024-02-06T07:20:18.492Z,5.13
2024-02-06T07:23:15.576Z,5.35
2024-02-06T07:26:12.632Z,5.12
2024-02-06T07:29:09.525Z,5.26
2024-02-06T07:32:07.416Z,5.42
2024-02-06T07:35:04.724Z,5.09
2024-02-06T07:38:06.218Z,5.07
2024-02-06T07:41:05.413Z,5.16
2024-02-06T07:44:02.420Z,5.08
2024-02-06T07:46:59.556Z,4.93
2024-02-06T07:49:56.473Z,5.21
2024-02-06T07:52:53.411Z,5.14
2024-02-06T07:55:50.428Z,5.01
2024-02-06T07:58:48.182Z,5.18
2024-02-06T08:01:45.231Z,5.18
2024-02-06T08:04:44.325Z,5.33
2024-02-06T08:07:42.169Z,5.21
2024-02-06T08:10:39.747Z,5.35
2024-02-06T08:13:37.212Z,5.21
2024-02-06T08:16:34.206Z,5.40
2024-02-06T08:19:31.966Z,5.35
2024-02-06T08:22:31.978Z,5.33
2024-02-06T08:25:31.160Z,5.56
2024-02-06T08:28:28.893Z,5.47
2024-02-06T08:31:26.783Z,5.30
2024-02-06T08:34:23.881Z,5.35
2024-02-06T08:37:21.016Z,5.36
2024-02-06T08:40:19.472Z,5.30
2024-02-06T08:43:18.576Z,5.39
2024-02-06T08:46:16.085Z,5.30
2024-02-06T08:49:13.049Z,5.25
2024-02-06T08:52:10.094Z,5.37
2024-02-06T08:55:08.020Z,5.41
2024-02-06T08:58:05.286Z,5.23
2024-02-06T09:01:02.617Z,5.11
2024-02-06T09:04:04.348Z,5.37
2024-02-06T09:07:03.112Z,5.27
2024-02-06T09:10:01.097Z,5.32
2024-02-06T09:12:58.956Z,5.36
2024-02-06T09:15:56.101Z,5.35
2024-02-06T09:18:55.632Z,5.35
2024-02-06T09:21:52.885Z,5.29
2024-02-06T09:24:49.885Z,5.51
2024-02-06T09:27:50.809Z,5.32
2024-02-06T09:30:48.913Z,5.34
2024-02-06T09:33:45.926Z,5.50
2024-02-06T09:36:44.131Z,5.43
2024-02-06T09:39:40.976Z,5.57
2024-02-06T09:42:38.837Z,5.48
2024-02-06T09:45:36.586Z,5.52
2024-02-06T09:48:33.527Z,5.57
2024-02-06T09:51:33.618Z,5.65
2024-02-06T09:54:32.106Z,5.67
2024-02-06T09:57:30.525Z,5.72
2024-02-06T10:00:28.312Z,5.53
2024-02-06T10:03:31.183Z,5.69
2024-02-06T10:06:28.248Z,5.85
2024-02-06T10:09:29.440Z,5.68
2024-02-06T10:12:28.086Z,5.76
2024-02-06T10:15:28.217Z,5.81
2024-02-06T10:18:26.722Z,5.49
2024-02-06T10:21:27.506Z,5.70
2024-02-06T10:24:26.040Z,5.85
2024-02-06T10:27:24.618Z,5.88
2024-02-06T10:30:24.732Z,5.64
2024-02-06T10:33:22.558Z,5.70
2024-02-06T10:36:21.379Z,5.87
2024-02-06T10:39:19.104Z,5.75
2024-02-06T10:42:52.822Z,5.87
2024-02-06T10:45:33.015Z,5.79
2024-02-06T10:48:30.388Z,5.96
2024-02-06T10:51:29.767Z,5.87
2024-02-06T10:54:28.015Z,5.87
2024-02-06T10:57:28.202Z,5.97
2024-02-06T11:00:28.057Z,6.23
2024-02-06T11:03:28.368Z,6.42
2024-02-06T11:06:29.374Z,6.15
2024-02-06T11:09:29.438Z,6.25
2024-02-06T11:12:34.600Z,5.88
2024-02-06T11:15:41.044Z,6.31
2024-02-06T11:18:57.014Z,6.17
2024-02-06T11:22:06.350Z,5.92
2024-02-06T11:25:04.293Z,5.88
2024-02-06T11:28:05.646Z,6.05
2024-02-06T11:31:04.816Z,5.86
2024-02-06T11:34:15.415Z,6.02
2024-02-06T11:37:31.487Z,6.08
2024-02-06T11:40:29.974Z,6.32
2024-02-06T11:43:28.522Z,6.09
2024-02-06T11:46:26.231Z,6.06
2024-02-06T11:49:25.017Z,5.82
2024-02-06T11:52:22.811Z,5.95
2024-02-06T11:55:19.815Z,5.73
2024-02-06T11:58:17.171Z,6.08
2024-02-06T12:01:26.220Z,6.11
2024-02-06T12:04:26.970Z,6.13
2024-02-06T12:07:24.935Z,5.82
2024-02-06T12:10:33.801Z,5.85
2024-02-06T12:13:33.775Z,5.67
2024-02-06T12:16:31.443Z,5.69
2024-02-06T12:19:29.335Z,5.80
2024-02-06T12:22:26.372Z,5.93
2024-02-06T12:25:24.354Z,5.88
2024-02-06T12:28:21.965Z,5.77
2024-02-06T12:31:19.149Z,5.72
2024-02-06T12:34:17.236Z,5.67
2024-02-06T12:37:14.392Z,6.02
2024-02-06T12:40:11.918Z,5.84
2024-02-06T12:43:12.677Z,5.59
2024-02-06T12:46:10.007Z,5.92
2024-02-06T12:49:07.621Z,5.80
2024-02-06T12:52:05.773Z,5.87
2024-02-06T12:55:02.917Z,5.92
2024-02-06T12:58:01.553Z,5.97
2024-02-06T13:01:01.639Z,6.06
2024-02-06T13:03:59.727Z,6.02
2024-02-06T13:06:57.072Z,6.00
2024-02-06T13:10:05.453Z,5.92
2024-02-06T13:13:06.990Z,6.47
2024-02-06T13:16:07.130Z,6.10
2024-02-06T13:19:04.770Z,5.95
2024-02-06T13:22:01.822Z,6.14
2024-02-06T13:24:58.766Z,6.29
2024-02-06T13:27:55.626Z,6.38
2024-02-06T13:30:52.774Z,6.32
2024-02-06T13:33:49.760Z,6.54
2024-02-06T13:36:46.781Z,6.32
2024-02-06T13:39:46.977Z,6.55
2024-02-06T13:42:43.869Z,6.57
2024-02-06T13:45:40.765Z,6.62
2024-02-06T13:48:37.848Z,6.57
2024-02-06T13:51:34.801Z,6.57
2024-02-06T13:54:31.671Z,6.75
2024-02-06T13:57:28.591Z,6.56
2024-02-06T14:00:27.241Z,6.64
2024-02-06T14:03:24.106Z,6.67
2024-02-06T14:06:21.314Z,6.38
2024-02-06T14:09:19.049Z,6.51
2024-02-06T14:12:18.158Z,6.66
2024-02-06T14:15:15.152Z,6.62
2024-02-06T14:18:12.035Z,6.56
2024-02-06T14:21:09.338Z,6.71
2024-02-06T14:24:06.442Z,6.71
2024-02-06T14:27:03.417Z,6.76
2024-02-06T14:30:00.373Z,6.74
2024-02-06T14:32:57.300Z,6.75
2024-02-06T14:35:54.250Z,6.74
2024-02-06T14:38:52.668Z,6.60
2024-02-06T14:41:49.972Z,6.60
2024-02-06T14:44:51.457Z,6.98
2024-02-06T14:47:49.479Z,6.59
2024-02-06T14:50:46.398Z,6.41
2024-02-06T14:53:44.434Z,6.79
2024-02-06T14:56:50.364Z,7.04
2024-02-06T14:59:47.361Z,6.52
2024-02-06T15:02:44.711Z,6.68
2024-02-06T15:05:42.096Z,6.69
2024-02-06T15:08:41.494Z,6.86
2024-02-06T15:11:41.569Z,6.77
2024-02-06T15:14:38.434Z,6.74
2024-02-06T15:17:35.808Z,6.56
2024-02-06T15:20:33.671Z,6.48
2024-02-06T15:23:30.606Z,6.56
2024-02-06T15:26:31.446Z,6.74
2024-02-06T15:29:28.374Z,6.55
2024-02-06T15:32:25.327Z,6.64
2024-02-06T15:35:23.761Z,6.81
2024-02-06T15:38:20.739Z,6.69
2024-02-06T15:41:17.649Z,6.63
2024-02-06T15:44:16.114Z,6.72
2024-02-06T15:47:13.409Z,6.83
2024-02-06T15:50:14.398Z,6.77
2024-02-06T15:53:13.362Z,6.72
2024-02-06T15:56:10.357Z,6.78
2024-02-06T15:59:09.722Z,6.58
2024-02-06T16:02:09.560Z,6.71
2024-02-06T16:05:08.358Z,6.62
2024-02-06T16:08:05.988Z,6.62
2024-02-06T16:11:03.024Z,6.49
2024-02-06T16:14:00.038Z,6.72
2024-02-06T16:16:57.602Z,6.52
2024-02-06T16:19:54.634Z,6.74
2024-02-06T16:22:51.600Z,6.59
2024-02-06T16:25:48.531Z,6.75
2024-02-06T16:28:45.519Z,6.63
2024-02-06T16:31:42.500Z,6.72
2024-02-06T16:34:40.566Z,6.78
2024-02-06T16:37:37.676Z,6.77
2024-02-06T16:40:34.970Z,6.69
2024-02-06T16:43:31.924Z,6.91
2024-02-06T16:46:29.063Z,6.70
2024-02-06T16:49:26.096Z,6.77
2024-02-06T16:52:23.562Z,6.82
2024-02-06T16:55:22.865Z,6.96
2024-02-06T16:58:20.959Z,6.89
2024-02-06T17:01:21.147Z,6.95
2024-02-06T17:04:20.850Z,7.04
2024-02-06T17:07:18.016Z,6.67
2024-02-06T17:10:17.713Z,6.92
2024-02-06T17:13:14.642Z,7.01
2024-02-06T17:16:11.617Z,6.83
2024-02-06T17:19:09.765Z,6.81
2024-02-06T17:22:06.772Z,6.91
2024-02-06T17:25:03.780Z,6.94
2024-02-06T17:28:01.704Z,6.91
2024-02-06T17:30:58.648Z,6.84
2024-02-06T17:33:55.714Z,6.74
2024-02-06T17:36:52.675Z,6.69
2024-02-06T17:39:49.658Z,6.84
2024-02-06T17:42:47.410Z,6.81
2024-02-06T17:45:44.348Z,7.08
2024-02-06T17:48:41.291Z,7.23
2024-02-06T17:51:38.186Z,6.75
2024-02-06T17:54:35.191Z,7.11
2024-02-06T17:57:32.114Z,7.08
2024-02-06T18:00:29.043Z,6.72
2024-02-06T18:03:25.991Z,7.33
2024-02-06T18:06:23.165Z,7.34
2024-02-06T18:09:20.669Z,7.30
2024-02-06T18:12:17.534Z,7.24
2024-02-06T18:15:14.601Z,7.45
2024-02-06T18:18:11.481Z,7.25
2024-02-06T18:21:08.357Z,7.33
2024-02-06T18:24:05.352Z,7.44
2024-02-06T18:27:05.273Z,7.17
2024-02-06T18:30:03.389Z,7.27
2024-02-06T18:33:00.343Z,7.29
2024-02-06T18:35:57.255Z,7.24
2024-02-06T18:38:55.722Z,6.96
2024-02-06T18:41:54.669Z,6.84
2024-02-06T18:44:51.565Z,7.09
2024-02-06T18:47:48.523Z,6.83
2024-02-06T18:50:46.113Z,7.16
2024-02-06T18:53:43.023Z,7.24
2024-02-06T18:56:39.915Z,7.12
2024-02-06T18:59:36.831Z,7.03
2024-02-06T19:02:34.237Z,7.01
2024-02-06T19:05:32.661Z,7.01
2024-02-06T19:08:29.661Z,6.79
2024-02-06T19:11:26.627Z,6.68
2024-02-06T19:14:23.548Z,6.99
2024-02-06T19:17:20.417Z,6.88
2024-02-06T19:20:17.494Z,7.06
2024-02-06T19:23:14.877Z,6.89
2024-02-06T19:26:11.866Z,6.98
2024-02-06T19:29:09.170Z,6.98
2024-02-06T19:32:07.426Z,7.03
2024-02-06T19:35:06.831Z,7.15
2024-02-06T19:38:04.496Z,6.90
2024-02-06T19:41:01.341Z,7.02
2024-02-06T19:43:59.487Z,7.04
2024-02-06T19:46:56.655Z,6.95
2024-02-06T19:49:53.963Z,6.75
2024-02-06T19:52:52.051Z,6.90
2024-02-06T19:55:49.243Z,6.95
2024-02-06T19:58:46.600Z,6.94
2024-02-06T20:01:43.868Z,6.87
2024-02-06T20:04:40.962Z,7.35
2024-02-06T20:07:37.997Z,7.02
2024-02-06T20:10:39.733Z,6.93
2024-02-06T20:13:37.165Z,7.09
2024-02-06T20:16:34.325Z,6.66
2024-02-06T20:19:31.291Z,7.22
2024-02-06T20:22:29.341Z,7.11
2024-02-06T20:25:26.334Z,7.17
2024-02-06T20:28:23.338Z,6.75
2024-02-06T20:31:20.374Z,7.36
2024-02-06T20:34:17.524Z,7.16
2024-02-06T20:37:14.506Z,7.20
2024-02-06T20:40:11.973Z,7.41
2024-02-06T20:43:10.450Z,7.19
2024-02-06T20:46:07.493Z,6.72
2024-02-06T20:49:06.199Z,6.97
2024-02-06T20:52:03.207Z,6.66
2024-02-06T20:55:00.103Z,6.90
2024-02-06T20:57:57.268Z,7.18
2024-02-06T21:00:54.180Z,7.51
2024-02-06T21:03:51.145Z,7.04
2024-02-06T21:06:48.086Z,6.93
2024-02-06T21:09:44.986Z,7.22
2024-02-06T21:12:41.845Z,7.09
2024-02-06T21:15:38.908Z,7.17
2024-02-06T21:18:35.821Z,6.70
2024-02-06T21:21:32.816Z,7.44
2024-02-06T21:24:29.743Z,7.16
2024-02-06T21:27:26.896Z,7.09
2024-02-06T21:30:23.763Z,6.67
2024-02-06T21:33:20.646Z,6.76
2024-02-06T21:36:17.645Z,6.64
2024-02-06T21:39:18.352Z,6.56
2024-02-06T21:42:15.132Z,6.70
2024-02-06T21:45:12.640Z,7.30
2024-02-06T21:48:10.995Z,6.87
2024-02-06T21:51:07.931Z,6.74
2024-02-06T21:54:04.892Z,6.87
2024-02-06T21:57:01.774Z,6.98
2024-02-06T21:59:58.677Z,7.08
2024-02-06T22:02:55.587Z,7.04
2024-02-06T22:05:52.625Z,6.84
2024-02-06T22:08:49.593Z,6.90
2024-02-06T22:11:47.628Z,7.14
2024-02-06T22:14:44.493Z,7.08
2024-02-06T22:17:41.472Z,6.99
2024-02-06T22:20:39.358Z,6.74
2024-02-06T22:23:36.230Z,6.91
2024-02-06T22:26:33.114Z,7.20
2024-02-06T22:29:30.010Z,7.30
2024-02-06T22:32:27.767Z,6.77
2024-02-06T22:35:24.780Z,7.07
2024-02-06T22:38:21.705Z,7.08
2024-02-06T22:41:18.580Z,6.83
2024-02-06T22:44:16.167Z,7.01
2024-02-06T22:47:13.272Z,7.21
2024-02-06T22:50:11.133Z,6.97
2024-02-06T22:53:08.135Z,7.09
2024-02-06T22:56:05.656Z,7.06
2024-02-06T22:59:02.518Z,7.09
2024-02-06T23:01:59.813Z,7.01
2024-02-06T23:04:56.767Z,7.25
2024-02-06T23:07:54.355Z,6.89
2024-02-06T23:10:51.434Z,7.07
2024-02-06T23:13:48.431Z,7.06
2024-02-06T23:16:45.829Z,6.97
2024-02-06T23:19:42.877Z,7.36
2024-02-06T23:22:39.913Z,7.02
2024-02-06T23:25:36.914Z,7.05
2024-02-06T23:28:33.955Z,6.98
2024-02-06T23:31:30.949Z,7.22
2024-02-06T23:34:27.874Z,7.12
2024-02-06T23:37:26.272Z,7.24
2024-02-06T23:40:23.909Z,7.22
2024-02-06T23:43:20.893Z,7.14
2024-02-06T23:46:21.920Z,7.16
2024-02-06T23:49:18.998Z,7.20
2024-02-06T23:52:16.705Z,7.12
2024-02-06T23:55:13.612Z,7.08
2024-02-06T23:58:10.762Z,7.16
